Point Venture, Texas
Current Conditions -  °F | °C
As of 11:55 PM on Wednesday 17 Dec 2014 (Local Time) from KRYW Reporting Station
Drizzle Drizzle  
Wind Chill: 46°   Ceiling: 300
Heat Index: 50°   Visibility: 0.5mi
Dew Point: 48°   Wind: 8mph
Humidity: 95%   Direction: 10°N
Pressure: 30.13"   Gusts: NA
Location:  30.4521°N, 97.9683°W
Report Text: KRYW 180555Z AUTO 01007KT 1/2SM -DZ OVC003 10/09 A3013 RMK AO2 T00980090 10105 20096 401050077
Loading
Personal Weather Stations






























Interactive Weather Map New forecast layout! Learn more

10-Day Weather Forecast

Advertisements
Track Severe Weather on mobile